createdAt,value
2018-05-17T00:04:25.768Z,13.20
2018-05-17T00:10:30.265Z,13.10
2018-05-17T00:16:35.454Z,13.10
2018-05-17T00:22:39.820Z,13.00
2018-05-17T00:28:44.162Z,13.00
2018-05-17T00:34:51.399Z,12.90
2018-05-17T00:40:55.768Z,12.90
2018-05-17T00:47:00.279Z,12.90
2018-05-17T00:53:22.482Z,12.80
2018-05-17T00:59:26.842Z,12.70
2018-05-17T01:05:31.218Z,12.80
2018-05-17T01:11:36.341Z,12.60
2018-05-17T01:17:40.740Z,12.50
2018-05-17T01:23:45.108Z,12.40
2018-05-17T01:29:49.469Z,12.40
2018-05-17T01:35:54.939Z,12.30
2018-05-17T01:41:59.456Z,12.10
2018-05-17T01:48:03.942Z,12.10
2018-05-17T01:54:08.319Z,12.10
2018-05-17T02:00:13.476Z,11.90
2018-05-17T02:06:17.933Z,11.80
2018-05-17T02:12:22.562Z,11.80
2018-05-17T02:18:26.941Z,11.80
2018-05-17T02:24:31.419Z,11.70
2018-05-17T02:30:36.867Z,11.70
2018-05-17T02:36:42.164Z,11.70
2018-05-17T02:42:46.638Z,11.70
2018-05-17T02:48:52.604Z,11.60
2018-05-17T02:54:57.081Z,11.50
2018-05-17T03:01:01.669Z,11.40
2018-05-17T03:07:06.256Z,11.30
2018-05-17T03:13:11.590Z,11.00
2018-05-17T03:19:16.141Z,11.00
2018-05-17T03:25:20.597Z,10.90
2018-05-17T03:31:25.952Z,10.80
2018-05-17T03:37:30.401Z,10.70
2018-05-17T03:43:34.951Z,10.80
2018-05-17T03:49:39.720Z,10.70
2018-05-17T03:55:44.299Z,10.60
2018-05-17T04:02:06.435Z,10.70
2018-05-17T04:08:11.566Z,10.70
2018-05-17T04:14:15.912Z,10.70
2018-05-17T04:20:21.679Z,10.70
2018-05-17T04:26:26.256Z,10.60
2018-05-17T04:32:30.882Z,10.60
2018-05-17T04:38:35.794Z,10.70
2018-05-17T04:44:40.784Z,10.80
2018-05-17T04:50:45.404Z,10.90
2018-05-17T04:56:50.925Z,10.90
2018-05-17T05:02:55.818Z,10.80
2018-05-17T05:09:00.160Z,10.70
2018-05-17T05:15:04.703Z,10.70
2018-05-17T05:21:09.088Z,10.70
2018-05-17T05:27:13.432Z,10.70
2018-05-17T05:33:17.804Z,10.60
2018-05-17T05:39:23.018Z,10.40
2018-05-17T05:45:28.309Z,10.30
2018-05-17T05:51:32.656Z,10.30
2018-05-17T05:57:37.769Z,10.40
2018-05-17T06:03:42.141Z,10.40
2018-05-17T06:09:46.491Z,10.40
2018-05-17T06:15:51.649Z,10.90
2018-05-17T06:21:56.015Z,11.00
2018-05-17T06:28:00.380Z,11.00
2018-05-17T06:34:04.820Z,11.20
2018-05-17T06:40:09.935Z,11.30
2018-05-17T06:46:14.316Z,11.30
2018-05-17T06:52:18.710Z,11.50
2018-05-17T06:58:24.592Z,11.10
2018-05-17T07:04:28.967Z,11.10
2018-05-17T07:10:33.434Z,10.90
2018-05-17T07:16:38.658Z,10.80
2018-05-17T07:22:43.004Z,10.70
2018-05-17T07:28:47.369Z,10.80
2018-05-17T07:34:52.915Z,10.90
2018-05-17T07:40:57.267Z,10.90
2018-05-17T07:47:01.660Z,11.20
2018-05-17T07:53:06.170Z,11.80
2018-05-17T07:59:10.581Z,11.80
2018-05-17T08:05:15.710Z,12.10
2018-05-17T08:11:20.182Z,12.10
2018-05-17T08:17:24.628Z,12.30
2018-05-17T08:23:29.753Z,13.20
2018-05-17T08:29:34.096Z,13.10
2018-05-17T08:35:39.294Z,14.20
2018-05-17T08:41:43.818Z,14.20
2018-05-17T08:47:48.201Z,14.10
2018-05-17T09:06:52.585Z,14.10
2018-05-17T09:12:57.069Z,13.60
2018-05-17T09:19:01.446Z,13.60
2018-05-17T09:25:05.983Z,14.40
2018-05-17T09:31:10.385Z,15.10
2018-05-17T09:37:14.755Z,15.30
2018-05-17T09:43:19.980Z,15.60
2018-05-17T09:49:24.579Z,15.60
2018-05-17T09:55:28.957Z,15.50
2018-05-17T10:01:34.141Z,15.50
2018-05-17T10:07:38.668Z,15.40
2018-05-17T10:13:44.037Z,15.40
2018-05-17T10:19:48.393Z,15.30
2018-05-17T10:25:52.870Z,15.80
2018-05-17T10:31:57.339Z,16.30
2018-05-17T10:38:01.697Z,16.70
2018-05-17T10:44:06.286Z,16.70
2018-05-17T10:50:10.641Z,16.40
2018-05-17T10:56:14.993Z,16.10
2018-05-17T11:02:20.337Z,17.30
2018-05-17T11:08:24.740Z,17.30
2018-05-17T11:14:29.489Z,18.00
2018-05-17T11:20:33.894Z,18.20
2018-05-17T11:26:38.283Z,17.90
2018-05-17T11:32:42.645Z,18.60
2018-05-17T11:38:46.989Z,18.50
2018-05-17T11:44:51.670Z,18.20
2018-05-17T11:50:56.030Z,18.70
2018-05-17T11:57:00.383Z,19.10
2018-05-17T12:03:05.494Z,19.30
2018-05-17T12:09:09.889Z,19.30
2018-05-17T12:15:14.280Z,19.00
2018-05-17T12:21:18.772Z,20.00
2018-05-17T12:27:24.774Z,21.20
2018-05-17T12:33:29.196Z,21.20
2018-05-17T12:39:34.329Z,21.30
2018-05-17T12:45:38.725Z,21.30
2018-05-17T12:51:43.097Z,21.80
2018-05-17T12:57:47.586Z,22.00
2018-05-17T13:03:52.138Z,21.80
2018-05-17T13:09:56.999Z,21.40
2018-05-17T13:16:01.470Z,20.90
2018-05-17T13:22:06.684Z,22.40
2018-05-17T13:28:11.271Z,22.40
2018-05-17T13:34:16.447Z,21.10
2018-05-17T13:40:20.850Z,21.10
2018-05-17T13:46:25.220Z,21.10
2018-05-17T13:52:29.621Z,20.80
2018-05-17T13:58:35.607Z,22.00
2018-05-17T14:04:40.080Z,22.00
2018-05-17T14:10:45.272Z,23.00
2018-05-17T14:16:49.804Z,23.00
2018-05-17T14:22:54.942Z,22.30
2018-05-17T14:28:59.294Z,22.50
2018-05-17T14:35:03.813Z,23.60
2018-05-17T14:41:08.160Z,23.70
2018-05-17T14:47:12.589Z,24.50
2018-05-17T14:53:16.979Z,23.50
2018-05-17T14:59:23.477Z,23.60
2018-05-17T15:05:27.924Z,23.50
2018-05-17T15:11:32.329Z,23.60
2018-05-17T15:17:36.890Z,24.80
2018-05-17T15:23:41.653Z,25.00
2018-05-17T15:29:46.095Z,24.90
2018-05-17T15:35:50.525Z,24.40
2018-05-17T15:41:55.656Z,24.20
2018-05-17T15:48:00.079Z,24.10
2018-05-17T15:54:04.438Z,23.90
2018-05-17T16:00:08.836Z,23.40
2018-05-17T16:06:13.268Z,23.00
2018-05-17T16:12:18.422Z,23.30
2018-05-17T16:18:23.824Z,23.30
2018-05-17T16:24:29.036Z,22.90
2018-05-17T16:30:33.465Z,22.80
2018-05-17T16:36:37.841Z,22.30
2018-05-17T16:42:42.234Z,22.80
2018-05-17T16:48:46.577Z,23.10
2018-05-17T16:54:51.988Z,22.80
2018-05-17T17:00:56.476Z,22.40
2018-05-17T17:07:00.824Z,23.50
2018-05-17T17:13:05.228Z,23.60
2018-05-17T17:19:09.609Z,23.30
2018-05-17T17:25:14.009Z,22.20
2018-05-17T17:31:18.385Z,22.00
2018-05-17T17:37:23.423Z,21.00
2018-05-17T17:43:27.803Z,21.50
2018-05-17T17:49:32.194Z,20.60
2018-05-17T17:55:36.630Z,20.00
2018-05-17T18:01:41.766Z,18.90
2018-05-17T18:07:46.162Z,18.90
2018-05-17T18:13:50.844Z,18.40
2018-05-17T18:19:56.006Z,16.90
2018-05-17T18:26:00.428Z,16.80
2018-05-17T18:32:05.534Z,14.90
2018-05-17T18:38:10.656Z,14.40
2018-05-17T18:44:15.064Z,14.30
2018-05-17T18:50:19.629Z,14.20
2018-05-17T18:56:24.319Z,13.80
2018-05-17T19:02:28.729Z,13.60
2018-05-17T19:08:34.029Z,13.40
2018-05-17T19:14:38.436Z,13.40
2018-05-17T19:20:42.883Z,13.20
2018-05-17T19:26:48.012Z,13.30
2018-05-17T19:32:52.717Z,13.30
2018-05-17T19:38:57.185Z,13.30
2018-05-17T19:45:01.575Z,13.30
2018-05-17T19:51:06.023Z,13.20
2018-05-17T19:57:10.380Z,13.20
2018-05-17T20:03:14.737Z,13.00
2018-05-17T20:09:19.971Z,12.60
2018-05-17T20:15:24.490Z,12.60
2018-05-17T20:21:29.124Z,12.60
2018-05-17T20:27:33.515Z,12.60
2018-05-17T20:33:37.891Z,12.50
2018-05-17T20:39:42.286Z,12.40
2018-05-17T20:45:46.719Z,12.40
2018-05-17T20:51:52.194Z,12.30
2018-05-17T20:57:56.705Z,12.30
2018-05-17T21:04:01.128Z,12.20
2018-05-17T21:10:06.361Z,12.10
2018-05-17T21:16:10.735Z,12.10
2018-05-17T21:22:15.858Z,12.10
2018-05-17T21:28:20.581Z,12.10
2018-05-17T21:34:25.696Z,12.10
2018-05-17T21:40:30.040Z,12.10
2018-05-17T21:46:34.583Z,12.10
2018-05-17T21:52:38.983Z,12.20
2018-05-17T21:58:44.120Z,11.90
2018-05-17T22:04:48.725Z,11.90
2018-05-17T22:10:54.231Z,11.80
2018-05-17T22:16:58.716Z,11.80
2018-05-17T22:23:03.130Z,11.80
2018-05-17T22:29:07.554Z,11.80
2018-05-17T22:35:12.117Z,11.70
2018-05-17T22:41:16.506Z,11.70
2018-05-17T22:47:21.820Z,11.70
2018-05-17T22:53:26.452Z,11.70
2018-05-17T22:59:31.833Z,11.70
2018-05-17T23:05:36.355Z,11.70
2018-05-17T23:11:40.754Z,11.60
2018-05-17T23:17:46.100Z,11.60
2018-05-17T23:23:51.888Z,11.50
2018-05-17T23:29:56.598Z,11.50
2018-05-17T23:36:01.160Z,11.40
2018-05-17T23:42:05.855Z,11.40
2018-05-17T23:48:10.290Z,11.20
2018-05-17T23:54:14.717Z,11.20
